sensor_id;sensor_type;location;lat;lon;timestamp;P1;durP1;ratioP1;P2;durP2;ratioP2
19482;SDS011;9882;51.166;6.992;2023-02-21T00:00:45;38.08;;;13.90;;
19482;SDS011;9882;51.166;6.992;2023-02-21T00:03:32;34.65;;;13.70;;
19482;SDS011;9882;51.166;6.992;2023-02-21T00:06:17;35.80;;;14.73;;
19482;SDS011;9882;51.166;6.992;2023-02-21T00:09:04;37.50;;;15.20;;
19482;SDS011;9882;51.166;6.992;2023-02-21T00:11:51;36.08;;;15.45;;
19482;SDS011;9882;51.166;6.992;2023-02-21T00:14:37;37.15;;;14.60;;
19482;SDS011;9882;51.166;6.992;2023-02-21T00:17:24;32.95;;;15.38;;
19482;SDS011;9882;51.166;6.992;2023-02-21T00:20:10;49.38;;;15.80;;
19482;SDS011;9882;51.166;6.992;2023-02-21T00:22:56;34.08;;;13.57;;
19482;SDS011;9882;51.166;6.992;2023-02-21T00:25:42;38.28;;;15.45;;
19482;SDS011;9882;51.166;6.992;2023-02-21T00:28:29;34.15;;;15.05;;
19482;SDS011;9882;51.166;6.992;2023-02-21T00:31:17;41.33;;;15.18;;
19482;SDS011;9882;51.166;6.992;2023-02-21T00:34:03;48.78;;;19.75;;
19482;SDS011;9882;51.166;6.992;2023-02-21T00:36:50;37.17;;;15.88;;
19482;SDS011;9882;51.166;6.992;2023-02-21T00:39:37;40.97;;;15.80;;
19482;SDS011;9882;51.166;6.992;2023-02-21T00:42:23;37.15;;;14.63;;
19482;SDS011;9882;51.166;6.992;2023-02-21T00:45:10;45.83;;;17.00;;
19482;SDS011;9882;51.166;6.992;2023-02-21T00:47:57;34.00;;;15.35;;
19482;SDS011;9882;51.166;6.992;2023-02-21T00:50:43;42.63;;;20.38;;
19482;SDS011;9882;51.166;6.992;2023-02-21T00:53:31;42.08;;;18.83;;
19482;SDS011;9882;51.166;6.992;2023-02-21T00:56:17;46.25;;;19.15;;
19482;SDS011;9882;51.166;6.992;2023-02-21T00:59:03;44.05;;;18.33;;
19482;SDS011;9882;51.166;6.992;2023-02-21T01:01:51;46.72;;;17.45;;
19482;SDS011;9882;51.166;6.992;2023-02-21T01:04:37;38.78;;;16.88;;
19482;SDS011;9882;51.166;6.992;2023-02-21T01:07:23;44.80;;;18.10;;
19482;SDS011;9882;51.166;6.992;2023-02-21T01:10:09;39.75;;;17.08;;
19482;SDS011;9882;51.166;6.992;2023-02-21T01:12:55;42.40;;;17.13;;
19482;SDS011;9882;51.166;6.992;2023-02-21T01:15:41;41.35;;;16.92;;
19482;SDS011;9882;51.166;6.992;2023-02-21T01:18:28;42.97;;;16.70;;
19482;SDS011;9882;51.166;6.992;2023-02-21T01:21:15;42.05;;;17.52;;
19482;SDS011;9882;51.166;6.992;2023-02-21T01:24:04;46.05;;;17.40;;
19482;SDS011;9882;51.166;6.992;2023-02-21T01:26:51;42.17;;;14.73;;
19482;SDS011;9882;51.166;6.992;2023-02-21T01:29:37;41.03;;;16.70;;
19482;SDS011;9882;51.166;6.992;2023-02-21T01:32:24;36.72;;;15.95;;
19482;SDS011;9882;51.166;6.992;2023-02-21T01:35:11;36.10;;;15.38;;
19482;SDS011;9882;51.166;6.992;2023-02-21T01:37:57;38.75;;;16.42;;
19482;SDS011;9882;51.166;6.992;2023-02-21T01:40:44;40.83;;;17.60;;
19482;SDS011;9882;51.166;6.992;2023-02-21T01:43:30;41.20;;;16.83;;
19482;SDS011;9882;51.166;6.992;2023-02-21T01:46:16;40.80;;;17.23;;
19482;SDS011;9882;51.166;6.992;2023-02-21T01:49:04;42.72;;;17.58;;
19482;SDS011;9882;51.166;6.992;2023-02-21T01:51:55;48.47;;;17.67;;
19482;SDS011;9882;51.166;6.992;2023-02-21T01:54:45;44.85;;;17.77;;
19482;SDS011;9882;51.166;6.992;2023-02-21T01:57:34;52.22;;;19.13;;
19482;SDS011;9882;51.166;6.992;2023-02-21T02:00:22;40.13;;;16.90;;
19482;SDS011;9882;51.166;6.992;2023-02-21T02:03:09;51.13;;;18.33;;
19482;SDS011;9882;51.166;6.992;2023-02-21T02:05:58;42.92;;;17.77;;
19482;SDS011;9882;51.166;6.992;2023-02-21T02:08:47;45.13;;;16.70;;
19482;SDS011;9882;51.166;6.992;2023-02-21T02:11:40;39.13;;;16.20;;
19482;SDS011;9882;51.166;6.992;2023-02-21T02:14:47;48.42;;;17.10;;
19482;SDS011;9882;51.166;6.992;2023-02-21T02:17:29;35.92;;;14.93;;
19482;SDS011;9882;51.166;6.992;2023-02-21T02:20:16;44.50;;;17.65;;
19482;SDS011;9882;51.166;6.992;2023-02-21T02:29:49;45.88;;;18.70;;
19482;SDS011;9882;51.166;6.992;2023-02-21T02:32:49;42.15;;;19.08;;
19482;SDS011;9882;51.166;6.992;2023-02-21T02:35:37;50.10;;;18.02;;
19482;SDS011;9882;51.166;6.992;2023-02-21T02:38:10;48.00;;;19.42;;
19482;SDS011;9882;51.166;6.992;2023-02-21T02:40:46;42.55;;;17.08;;
19482;SDS011;9882;51.166;6.992;2023-02-21T02:43:23;46.03;;;20.20;;
19482;SDS011;9882;51.166;6.992;2023-02-21T02:45:59;52.20;;;17.83;;
19482;SDS011;9882;51.166;6.992;2023-02-21T02:48:33;41.83;;;17.35;;
19482;SDS011;9882;51.166;6.992;2023-02-21T02:51:07;54.17;;;20.27;;
19482;SDS011;9882;51.166;6.992;2023-02-21T02:53:40;51.38;;;20.05;;
19482;SDS011;9882;51.166;6.992;2023-02-21T02:56:10;53.92;;;19.25;;
19482;SDS011;9882;51.166;6.992;2023-02-21T02:58:42;44.95;;;19.67;;
19482;SDS011;9882;51.166;6.992;2023-02-21T03:01:19;52.55;;;21.33;;
19482;SDS011;9882;51.166;6.992;2023-02-21T03:04:10;56.28;;;20.48;;
19482;SDS011;9882;51.166;6.992;2023-02-21T03:06:56;41.72;;;17.75;;
19482;SDS011;9882;51.166;6.992;2023-02-21T03:09:33;46.28;;;18.60;;
19482;SDS011;9882;51.166;6.992;2023-02-21T03:12:14;39.40;;;18.58;;
19482;SDS011;9882;51.166;6.992;2023-02-21T03:14:49;46.80;;;18.33;;
19482;SDS011;9882;51.166;6.992;2023-02-21T03:17:22;52.78;;;21.55;;
19482;SDS011;9882;51.166;6.992;2023-02-21T03:19:53;40.97;;;18.20;;
19482;SDS011;9882;51.166;6.992;2023-02-21T03:22:26;58.30;;;21.33;;
19482;SDS011;9882;51.166;6.992;2023-02-21T03:24:57;46.03;;;19.77;;
19482;SDS011;9882;51.166;6.992;2023-02-21T03:27:30;44.65;;;18.38;;
19482;SDS011;9882;51.166;6.992;2023-02-21T03:30:10;47.92;;;20.23;;
19482;SDS011;9882;51.166;6.992;2023-02-21T03:32:41;44.40;;;17.23;;
19482;SDS011;9882;51.166;6.992;2023-02-21T03:35:15;47.38;;;20.23;;
19482;SDS011;9882;51.166;6.992;2023-02-21T03:37:46;56.53;;;22.30;;
19482;SDS011;9882;51.166;6.992;2023-02-21T03:40:21;43.33;;;18.45;;
19482;SDS011;9882;51.166;6.992;2023-02-21T03:42:52;39.90;;;17.08;;
19482;SDS011;9882;51.166;6.992;2023-02-21T03:45:25;46.88;;;22.20;;
19482;SDS011;9882;51.166;6.992;2023-02-21T03:48:23;47.28;;;18.77;;
19482;SDS011;9882;51.166;6.992;2023-02-21T03:51:06;63.92;;;24.48;;
19482;SDS011;9882;51.166;6.992;2023-02-21T03:53:43;55.22;;;23.65;;
19482;SDS011;9882;51.166;6.992;2023-02-21T03:56:12;50.63;;;20.40;;
19482;SDS011;9882;51.166;6.992;2023-02-21T03:58:55;62.42;;;23.80;;
19482;SDS011;9882;51.166;6.992;2023-02-21T04:01:25;59.17;;;24.35;;
19482;SDS011;9882;51.166;6.992;2023-02-21T04:03:54;58.92;;;23.67;;
19482;SDS011;9882;51.166;6.992;2023-02-21T04:06:23;44.83;;;20.77;;
19482;SDS011;9882;51.166;6.992;2023-02-21T04:08:53;54.47;;;21.13;;
19482;SDS011;9882;51.166;6.992;2023-02-21T04:11:24;44.03;;;18.77;;
19482;SDS011;9882;51.166;6.992;2023-02-21T04:13:53;44.40;;;19.75;;
19482;SDS011;9882;51.166;6.992;2023-02-21T04:16:22;46.38;;;20.23;;
19482;SDS011;9882;51.166;6.992;2023-02-21T04:18:53;54.10;;;24.13;;
19482;SDS011;9882;51.166;6.992;2023-02-21T04:21:23;60.13;;;24.85;;
19482;SDS011;9882;51.166;6.992;2023-02-21T04:23:56;54.08;;;24.73;;
19482;SDS011;9882;51.166;6.992;2023-02-21T04:26:29;66.75;;;26.25;;
19482;SDS011;9882;51.166;6.992;2023-02-21T04:28:58;46.42;;;19.05;;
19482;SDS011;9882;51.166;6.992;2023-02-21T04:31:27;54.08;;;22.42;;
19482;SDS011;9882;51.166;6.992;2023-02-21T04:33:58;64.15;;;24.50;;
19482;SDS011;9882;51.166;6.992;2023-02-21T04:36:38;67.80;;;26.45;;
19482;SDS011;9882;51.166;6.992;2023-02-21T04:39:08;64.28;;;24.95;;
19482;SDS011;9882;51.166;6.992;2023-02-21T04:41:37;58.17;;;25.50;;
19482;SDS011;9882;51.166;6.992;2023-02-21T04:44:08;63.17;;;24.38;;
19482;SDS011;9882;51.166;6.992;2023-02-21T04:46:37;66.28;;;25.27;;
19482;SDS011;9882;51.166;6.992;2023-02-21T04:49:06;55.63;;;23.80;;
19482;SDS011;9882;51.166;6.992;2023-02-21T04:51:35;62.58;;;27.00;;
19482;SDS011;9882;51.166;6.992;2023-02-21T04:54:04;63.97;;;26.65;;
19482;SDS011;9882;51.166;6.992;2023-02-21T04:56:35;49.75;;;22.23;;
19482;SDS011;9882;51.166;6.992;2023-02-21T04:59:05;53.92;;;22.38;;
19482;SDS011;9882;51.166;6.992;2023-02-21T05:01:34;63.00;;;26.42;;
19482;SDS011;9882;51.166;6.992;2023-02-21T05:04:03;71.72;;;25.83;;
19482;SDS011;9882;51.166;6.992;2023-02-21T05:06:33;65.85;;;27.33;;
19482;SDS011;9882;51.166;6.992;2023-02-21T05:09:02;76.38;;;27.20;;
19482;SDS011;9882;51.166;6.992;2023-02-21T05:11:31;68.57;;;26.70;;
19482;SDS011;9882;51.166;6.992;2023-02-21T05:14:03;65.00;;;26.92;;
19482;SDS011;9882;51.166;6.992;2023-02-21T05:16:31;73.43;;;27.02;;
19482;SDS011;9882;51.166;6.992;2023-02-21T05:19:00;70.47;;;27.02;;
19482;SDS011;9882;51.166;6.992;2023-02-21T05:21:32;67.32;;;26.35;;
19482;SDS011;9882;51.166;6.992;2023-02-21T05:24:03;64.57;;;26.27;;
19482;SDS011;9882;51.166;6.992;2023-02-21T05:26:33;64.18;;;28.17;;
19482;SDS011;9882;51.166;6.992;2023-02-21T05:29:05;71.30;;;25.02;;
19482;SDS011;9882;51.166;6.992;2023-02-21T05:31:33;44.47;;;20.30;;
19482;SDS011;9882;51.166;6.992;2023-02-21T05:34:02;83.00;;;28.58;;
19482;SDS011;9882;51.166;6.992;2023-02-21T05:36:31;63.10;;;27.63;;
19482;SDS011;9882;51.166;6.992;2023-02-21T05:39:00;54.78;;;25.98;;
19482;SDS011;9882;51.166;6.992;2023-02-21T05:41:28;81.63;;;28.85;;
19482;SDS011;9882;51.166;6.992;2023-02-21T05:43:57;55.90;;;20.67;;
19482;SDS011;9882;51.166;6.992;2023-02-21T05:46:28;60.05;;;25.15;;
19482;SDS011;9882;51.166;6.992;2023-02-21T05:48:58;68.43;;;28.52;;
19482;SDS011;9882;51.166;6.992;2023-02-21T05:51:32;70.65;;;26.38;;
19482;SDS011;9882;51.166;6.992;2023-02-21T05:54:02;64.28;;;24.92;;
19482;SDS011;9882;51.166;6.992;2023-02-21T05:56:36;70.25;;;27.80;;
19482;SDS011;9882;51.166;6.992;2023-02-21T05:59:05;75.50;;;28.65;;
19482;SDS011;9882;51.166;6.992;2023-02-21T06:01:36;76.65;;;29.40;;
19482;SDS011;9882;51.166;6.992;2023-02-21T06:04:05;75.28;;;30.75;;
19482;SDS011;9882;51.166;6.992;2023-02-21T06:06:34;88.90;;;30.85;;
19482;SDS011;9882;51.166;6.992;2023-02-21T06:09:04;75.55;;;29.67;;
19482;SDS011;9882;51.166;6.992;2023-02-21T06:11:34;76.95;;;31.40;;
19482;SDS011;9882;51.166;6.992;2023-02-21T06:14:05;72.32;;;26.88;;
19482;SDS011;9882;51.166;6.992;2023-02-21T06:16:37;88.80;;;32.75;;
19482;SDS011;9882;51.166;6.992;2023-02-21T06:19:06;88.95;;;33.22;;
19482;SDS011;9882;51.166;6.992;2023-02-21T06:21:36;58.63;;;25.38;;
19482;SDS011;9882;51.166;6.992;2023-02-21T06:24:06;55.45;;;24.92;;
19482;SDS011;9882;51.166;6.992;2023-02-21T06:26:35;69.50;;;25.75;;
19482;SDS011;9882;51.166;6.992;2023-02-21T06:29:04;84.78;;;31.23;;
19482;SDS011;9882;51.166;6.992;2023-02-21T06:31:34;78.00;;;30.42;;
19482;SDS011;9882;51.166;6.992;2023-02-21T06:34:04;61.00;;;24.25;;
19482;SDS011;9882;51.166;6.992;2023-02-21T06:36:33;96.20;;;33.45;;
19482;SDS011;9882;51.166;6.992;2023-02-21T06:39:02;72.78;;;29.55;;
19482;SDS011;9882;51.166;6.992;2023-02-21T06:41:31;95.97;;;33.42;;
19482;SDS011;9882;51.166;6.992;2023-02-21T06:44:00;91.53;;;29.98;;
19482;SDS011;9882;51.166;6.992;2023-02-21T06:46:29;90.78;;;32.65;;
19482;SDS011;9882;51.166;6.992;2023-02-21T06:48:58;59.92;;;25.17;;
19482;SDS011;9882;51.166;6.992;2023-02-21T06:51:32;90.82;;;31.05;;
19482;SDS011;9882;51.166;6.992;2023-02-21T06:54:01;84.53;;;30.88;;
19482;SDS011;9882;51.166;6.992;2023-02-21T06:56:30;85.05;;;31.70;;
19482;SDS011;9882;51.166;6.992;2023-02-21T06:58:59;82.65;;;30.45;;
19482;SDS011;9882;51.166;6.992;2023-02-21T07:01:28;82.03;;;30.30;;
19482;SDS011;9882;51.166;6.992;2023-02-21T07:03:57;72.50;;;27.77;;
19482;SDS011;9882;51.166;6.992;2023-02-21T07:06:28;56.50;;;26.02;;
19482;SDS011;9882;51.166;6.992;2023-02-21T07:08:59;60.88;;;26.13;;
19482;SDS011;9882;51.166;6.992;2023-02-21T07:11:28;64.70;;;24.20;;
19482;SDS011;9882;51.166;6.992;2023-02-21T07:13:58;67.65;;;26.70;;
19482;SDS011;9882;51.166;6.992;2023-02-21T07:16:27;64.32;;;25.98;;
19482;SDS011;9882;51.166;6.992;2023-02-21T07:18:56;65.65;;;24.08;;
19482;SDS011;9882;51.166;6.992;2023-02-21T07:21:26;83.25;;;27.35;;
19482;SDS011;9882;51.166;6.992;2023-02-21T07:23:57;71.32;;;25.88;;
19482;SDS011;9882;51.166;6.992;2023-02-21T07:26:26;55.20;;;24.35;;
19482;SDS011;9882;51.166;6.992;2023-02-21T07:28:54;68.20;;;27.88;;
19482;SDS011;9882;51.166;6.992;2023-02-21T07:31:23;74.38;;;27.13;;
19482;SDS011;9882;51.166;6.992;2023-02-21T07:33:52;69.18;;;26.58;;
19482;SDS011;9882;51.166;6.992;2023-02-21T07:36:22;80.50;;;27.48;;
19482;SDS011;9882;51.166;6.992;2023-02-21T07:38:53;105.50;;;27.67;;
19482;SDS011;9882;51.166;6.992;2023-02-21T07:41:21;61.47;;;26.17;;
19482;SDS011;9882;51.166;6.992;2023-02-21T07:43:50;66.38;;;25.20;;
19482;SDS011;9882;51.166;6.992;2023-02-21T07:46:19;74.45;;;27.05;;
19482;SDS011;9882;51.166;6.992;2023-02-21T07:48:47;70.57;;;27.02;;
19482;SDS011;9882;51.166;6.992;2023-02-21T07:51:16;68.45;;;25.55;;
19482;SDS011;9882;51.166;6.992;2023-02-21T07:53:45;72.43;;;27.63;;
19482;SDS011;9882;51.166;6.992;2023-02-21T07:56:15;65.13;;;25.92;;
19482;SDS011;9882;51.166;6.992;2023-02-21T07:58:44;69.75;;;26.98;;
19482;SDS011;9882;51.166;6.992;2023-02-21T08:01:13;93.63;;;27.05;;
19482;SDS011;9882;51.166;6.992;2023-02-21T08:03:42;111.50;;;28.70;;
19482;SDS011;9882;51.166;6.992;2023-02-21T08:06:11;73.43;;;26.95;;
19482;SDS011;9882;51.166;6.992;2023-02-21T08:08:39;71.68;;;26.80;;
19482;SDS011;9882;51.166;6.992;2023-02-21T08:11:08;71.38;;;27.67;;
19482;SDS011;9882;51.166;6.992;2023-02-21T08:13:38;95.53;;;29.80;;
19482;SDS011;9882;51.166;6.992;2023-02-21T08:16:07;88.65;;;28.55;;
19482;SDS011;9882;51.166;6.992;2023-02-21T08:18:36;79.80;;;27.38;;
19482;SDS011;9882;51.166;6.992;2023-02-21T08:21:06;66.85;;;26.65;;
19482;SDS011;9882;51.166;6.992;2023-02-21T08:23:36;83.68;;;26.10;;
19482;SDS011;9882;51.166;6.992;2023-02-21T08:26:05;77.47;;;27.50;;
19482;SDS011;9882;51.166;6.992;2023-02-21T08:28:34;85.57;;;25.95;;
19482;SDS011;9882;51.166;6.992;2023-02-21T08:31:05;75.70;;;25.98;;
19482;SDS011;9882;51.166;6.992;2023-02-21T08:33:34;80.38;;;24.05;;
19482;SDS011;9882;51.166;6.992;2023-02-21T08:36:03;65.68;;;23.45;;
19482;SDS011;9882;51.166;6.992;2023-02-21T08:38:32;55.78;;;22.73;;
19482;SDS011;9882;51.166;6.992;2023-02-21T08:41:01;66.05;;;24.20;;
19482;SDS011;9882;51.166;6.992;2023-02-21T08:43:32;56.00;;;21.60;;
19482;SDS011;9882;51.166;6.992;2023-02-21T08:46:00;61.40;;;23.38;;
19482;SDS011;9882;51.166;6.992;2023-02-21T08:48:31;72.63;;;23.25;;
19482;SDS011;9882;51.166;6.992;2023-02-21T08:50:59;65.45;;;22.33;;
19482;SDS011;9882;51.166;6.992;2023-02-21T08:53:30;65.50;;;22.08;;
19482;SDS011;9882;51.166;6.992;2023-02-21T08:55:58;64.50;;;22.80;;
19482;SDS011;9882;51.166;6.992;2023-02-21T08:58:27;74.38;;;23.15;;
19482;SDS011;9882;51.166;6.992;2023-02-21T09:00:56;68.63;;;23.38;;
19482;SDS011;9882;51.166;6.992;2023-02-21T09:03:25;60.67;;;21.70;;
19482;SDS011;9882;51.166;6.992;2023-02-21T09:05:55;81.88;;;25.10;;
19482;SDS011;9882;51.166;6.992;2023-02-21T09:08:23;79.53;;;23.02;;
19482;SDS011;9882;51.166;6.992;2023-02-21T09:10:54;80.85;;;24.55;;
19482;SDS011;9882;51.166;6.992;2023-02-21T09:13:26;65.90;;;22.35;;
19482;SDS011;9882;51.166;6.992;2023-02-21T09:15:55;74.82;;;22.70;;
19482;SDS011;9882;51.166;6.992;2023-02-21T09:18:24;69.30;;;22.95;;
19482;SDS011;9882;51.166;6.992;2023-02-21T09:20:55;57.35;;;20.70;;
19482;SDS011;9882;51.166;6.992;2023-02-21T09:23:25;61.25;;;24.20;;
19482;SDS011;9882;51.166;6.992;2023-02-21T09:25:56;57.28;;;20.10;;
19482;SDS011;9882;51.166;6.992;2023-02-21T09:28:25;68.85;;;22.50;;
19482;SDS011;9882;51.166;6.992;2023-02-21T09:30:55;72.40;;;23.48;;
19482;SDS011;9882;51.166;6.992;2023-02-21T09:33:24;62.92;;;21.45;;
19482;SDS011;9882;51.166;6.992;2023-02-21T09:35:52;52.00;;;20.08;;
19482;SDS011;9882;51.166;6.992;2023-02-21T09:38:22;59.00;;;19.23;;
19482;SDS011;9882;51.166;6.992;2023-02-21T09:40:52;52.33;;;19.33;;
19482;SDS011;9882;51.166;6.992;2023-02-21T09:43:27;68.35;;;20.50;;
19482;SDS011;9882;51.166;6.992;2023-02-21T09:45:59;53.50;;;20.80;;
19482;SDS011;9882;51.166;6.992;2023-02-21T09:48:32;72.55;;;20.35;;
19482;SDS011;9882;51.166;6.992;2023-02-21T09:51:01;66.28;;;20.30;;
19482;SDS011;9882;51.166;6.992;2023-02-21T09:53:36;64.30;;;20.23;;
19482;SDS011;9882;51.166;6.992;2023-02-21T09:56:10;66.40;;;19.77;;
19482;SDS011;9882;51.166;6.992;2023-02-21T09:58:44;79.53;;;22.65;;
19482;SDS011;9882;51.166;6.992;2023-02-21T10:01:19;82.15;;;21.50;;
19482;SDS011;9882;51.166;6.992;2023-02-21T10:04:00;60.95;;;20.80;;
19482;SDS011;9882;51.166;6.992;2023-02-21T10:06:42;83.15;;;20.13;;
19482;SDS011;9882;51.166;6.992;2023-02-21T10:09:20;54.60;;;19.23;;
19482;SDS011;9882;51.166;6.992;2023-02-21T10:11:57;65.38;;;20.17;;
19482;SDS011;9882;51.166;6.992;2023-02-21T10:14:35;41.75;;;17.00;;
19482;SDS011;9882;51.166;6.992;2023-02-21T10:17:12;60.67;;;20.13;;
19482;SDS011;9882;51.166;6.992;2023-02-21T10:19:46;54.25;;;18.90;;
19482;SDS011;9882;51.166;6.992;2023-02-21T10:22:20;55.25;;;19.33;;
19482;SDS011;9882;51.166;6.992;2023-02-21T10:24:53;51.00;;;18.33;;
19482;SDS011;9882;51.166;6.992;2023-02-21T10:27:22;42.55;;;17.63;;
19482;SDS011;9882;51.166;6.992;2023-02-21T10:29:55;45.30;;;17.35;;
19482;SDS011;9882;51.166;6.992;2023-02-21T10:32:28;44.03;;;16.55;;
19482;SDS011;9882;51.166;6.992;2023-02-21T10:34:57;42.42;;;18.10;;
19482;SDS011;9882;51.166;6.992;2023-02-21T10:37:32;49.55;;;17.08;;
19482;SDS011;9882;51.166;6.992;2023-02-21T10:40:24;42.67;;;16.75;;
19482;SDS011;9882;51.166;6.992;2023-02-21T10:42:59;42.38;;;16.05;;
19482;SDS011;9882;51.166;6.992;2023-02-21T10:45:33;47.25;;;15.88;;
19482;SDS011;9882;51.166;6.992;2023-02-21T10:48:05;53.60;;;17.27;;
19482;SDS011;9882;51.166;6.992;2023-02-21T10:50:48;60.80;;;18.25;;
19482;SDS011;9882;51.166;6.992;2023-02-21T10:53:26;49.17;;;15.73;;
19482;SDS011;9882;51.166;6.992;2023-02-21T10:58:55;51.83;;;17.90;;
19482;SDS011;9882;51.166;6.992;2023-02-21T11:01:31;47.45;;;17.27;;
19482;SDS011;9882;51.166;6.992;2023-02-21T11:04:03;52.65;;;16.35;;
19482;SDS011;9882;51.166;6.992;2023-02-21T11:06:35;45.58;;;16.60;;
19482;SDS011;9882;51.166;6.992;2023-02-21T11:12:16;49.25;;;17.02;;
19482;SDS011;9882;51.166;6.992;2023-02-21T11:15:02;52.88;;;17.63;;
19482;SDS011;9882;51.166;6.992;2023-02-21T11:18:01;42.80;;;15.43;;
19482;SDS011;9882;51.166;6.992;2023-02-21T11:20:32;62.03;;;17.40;;
19482;SDS011;9882;51.166;6.992;2023-02-21T11:23:00;44.38;;;16.00;;
19482;SDS011;9882;51.166;6.992;2023-02-21T11:25:36;51.85;;;17.08;;
19482;SDS011;9882;51.166;6.992;2023-02-21T11:28:16;48.78;;;17.30;;
19482;SDS011;9882;51.166;6.992;2023-02-21T11:30:47;51.15;;;17.90;;
19482;SDS011;9882;51.166;6.992;2023-02-21T11:33:29;49.88;;;18.27;;
19482;SDS011;9882;51.166;6.992;2023-02-21T11:36:06;42.05;;;15.55;;
19482;SDS011;9882;51.166;6.992;2023-02-21T11:38:38;54.03;;;18.17;;
19482;SDS011;9882;51.166;6.992;2023-02-21T11:41:16;56.10;;;18.92;;
19482;SDS011;9882;51.166;6.992;2023-02-21T11:43:50;56.55;;;19.63;;
19482;SDS011;9882;51.166;6.992;2023-02-21T11:49:10;68.03;;;22.55;;
19482;SDS011;9882;51.166;6.992;2023-02-21T11:51:46;69.45;;;22.10;;
19482;SDS011;9882;51.166;6.992;2023-02-21T11:54:23;75.72;;;24.08;;
19482;SDS011;9882;51.166;6.992;2023-02-21T11:56:57;62.72;;;21.75;;
19482;SDS011;9882;51.166;6.992;2023-02-21T11:59:37;66.28;;;21.70;;
19482;SDS011;9882;51.166;6.992;2023-02-21T12:02:16;57.33;;;19.60;;
19482;SDS011;9882;51.166;6.992;2023-02-21T12:05:06;58.85;;;22.40;;
19482;SDS011;9882;51.166;6.992;2023-02-21T12:07:44;49.78;;;17.67;;
19482;SDS011;9882;51.166;6.992;2023-02-21T12:10:32;65.07;;;22.55;;
19482;SDS011;9882;51.166;6.992;2023-02-21T12:13:23;71.68;;;22.92;;
19482;SDS011;9882;51.166;6.992;2023-02-21T12:16:01;68.88;;;21.65;;
19482;SDS011;9882;51.166;6.992;2023-02-21T12:18:42;51.55;;;18.95;;
19482;SDS011;9882;51.166;6.992;2023-02-21T12:21:23;53.53;;;21.42;;
19482;SDS011;9882;51.166;6.992;2023-02-21T12:24:15;57.58;;;18.98;;
19482;SDS011;9882;51.166;6.992;2023-02-21T12:26:56;67.97;;;24.75;;
19482;SDS011;9882;51.166;6.992;2023-02-21T12:29:33;87.18;;;25.50;;
19482;SDS011;9882;51.166;6.992;2023-02-21T12:32:22;58.75;;;20.77;;
19482;SDS011;9882;51.166;6.992;2023-02-21T12:35:27;79.18;;;26.13;;
19482;SDS011;9882;51.166;6.992;2023-02-21T12:38:11;57.65;;;21.77;;
19482;SDS011;9882;51.166;6.992;2023-02-21T12:40:48;77.20;;;25.65;;
19482;SDS011;9882;51.166;6.992;2023-02-21T12:43:33;56.60;;;19.05;;
19482;SDS011;9882;51.166;6.992;2023-02-21T12:46:14;65.97;;;24.75;;
19482;SDS011;9882;51.166;6.992;2023-02-21T12:48:50;71.20;;;24.50;;
19482;SDS011;9882;51.166;6.992;2023-02-21T12:51:24;63.90;;;23.48;;
19482;SDS011;9882;51.166;6.992;2023-02-21T12:53:59;60.97;;;20.45;;
19482;SDS011;9882;51.166;6.992;2023-02-21T12:56:31;50.85;;;19.23;;
19482;SDS011;9882;51.166;6.992;2023-02-21T12:59:06;67.85;;;23.38;;
19482;SDS011;9882;51.166;6.992;2023-02-21T13:01:42;73.47;;;24.67;;
19482;SDS011;9882;51.166;6.992;2023-02-21T13:04:19;68.88;;;22.67;;
19482;SDS011;9882;51.166;6.992;2023-02-21T13:06:56;66.20;;;21.00;;
19482;SDS011;9882;51.166;6.992;2023-02-21T13:09:29;57.88;;;21.63;;
19482;SDS011;9882;51.166;6.992;2023-02-21T13:12:03;57.92;;;19.88;;
19482;SDS011;9882;51.166;6.992;2023-02-21T13:14:36;49.55;;;19.88;;
19482;SDS011;9882;51.166;6.992;2023-02-21T13:17:09;46.42;;;18.75;;
19482;SDS011;9882;51.166;6.992;2023-02-21T13:19:44;66.93;;;23.75;;
19482;SDS011;9882;51.166;6.992;2023-02-21T13:29:03;54.53;;;19.92;;
19482;SDS011;9882;51.166;6.992;2023-02-21T13:31:41;69.95;;;24.23;;
19482;SDS011;9882;51.166;6.992;2023-02-21T13:34:12;68.82;;;24.50;;
19482;SDS011;9882;51.166;6.992;2023-02-21T13:36:48;73.90;;;25.70;;
19482;SDS011;9882;51.166;6.992;2023-02-21T13:39:18;56.55;;;18.95;;
19482;SDS011;9882;51.166;6.992;2023-02-21T13:41:50;71.60;;;25.20;;
19482;SDS011;9882;51.166;6.992;2023-02-21T13:44:22;70.97;;;26.75;;
19482;SDS011;9882;51.166;6.992;2023-02-21T13:47:03;74.85;;;25.63;;
19482;SDS011;9882;51.166;6.992;2023-02-21T13:49:47;69.05;;;21.45;;
19482;SDS011;9882;51.166;6.992;2023-02-21T13:52:33;53.38;;;20.77;;
19482;SDS011;9882;51.166;6.992;2023-02-21T13:55:21;61.70;;;20.55;;
19482;SDS011;9882;51.166;6.992;2023-02-21T14:01:17;46.05;;;18.63;;
19482;SDS011;9882;51.166;6.992;2023-02-21T14:07:05;60.70;;;23.58;;
19482;SDS011;9882;51.166;6.992;2023-02-21T14:09:36;63.80;;;24.75;;
19482;SDS011;9882;51.166;6.992;2023-02-21T14:12:07;66.40;;;26.42;;
19482;SDS011;9882;51.166;6.992;2023-02-21T14:14:38;74.93;;;25.17;;
19482;SDS011;9882;51.166;6.992;2023-02-21T14:17:08;88.07;;;28.42;;
19482;SDS011;9882;51.166;6.992;2023-02-21T14:19:40;61.92;;;26.85;;
19482;SDS011;9882;51.166;6.992;2023-02-21T14:22:11;76.20;;;27.75;;
19482;SDS011;9882;51.166;6.992;2023-02-21T14:24:44;84.53;;;28.23;;
19482;SDS011;9882;51.166;6.992;2023-02-21T14:27:31;61.47;;;21.00;;
19482;SDS011;9882;51.166;6.992;2023-02-21T14:30:22;77.53;;;28.25;;
19482;SDS011;9882;51.166;6.992;2023-02-21T14:32:53;60.35;;;21.83;;
19482;SDS011;9882;51.166;6.992;2023-02-21T14:35:37;66.07;;;25.52;;
19482;SDS011;9882;51.166;6.992;2023-02-21T14:38:19;54.33;;;21.95;;
19482;SDS011;9882;51.166;6.992;2023-02-21T14:40:56;82.88;;;28.60;;
19482;SDS011;9882;51.166;6.992;2023-02-21T14:46:32;63.40;;;24.88;;
19482;SDS011;9882;51.166;6.992;2023-02-21T14:49:32;67.50;;;23.63;;
19482;SDS011;9882;51.166;6.992;2023-02-21T14:52:23;61.45;;;21.95;;
19482;SDS011;9882;51.166;6.992;2023-02-21T15:01:12;75.00;;;28.80;;
19482;SDS011;9882;51.166;6.992;2023-02-21T15:03:53;74.68;;;25.05;;
19482;SDS011;9882;51.166;6.992;2023-02-21T15:06:28;63.50;;;22.20;;
19482;SDS011;9882;51.166;6.992;2023-02-21T15:09:01;68.45;;;22.95;;
19482;SDS011;9882;51.166;6.992;2023-02-21T15:11:39;64.55;;;21.75;;
19482;SDS011;9882;51.166;6.992;2023-02-21T15:14:15;60.88;;;23.30;;
19482;SDS011;9882;51.166;6.992;2023-02-21T15:16:51;71.18;;;24.65;;
19482;SDS011;9882;51.166;6.992;2023-02-21T15:19:24;59.65;;;24.10;;
19482;SDS011;9882;51.166;6.992;2023-02-21T15:22:14;60.80;;;23.92;;
19482;SDS011;9882;51.166;6.992;2023-02-21T15:24:59;72.63;;;25.45;;
19482;SDS011;9882;51.166;6.992;2023-02-21T15:27:53;64.65;;;24.20;;
19482;SDS011;9882;51.166;6.992;2023-02-21T15:30:24;74.75;;;26.77;;
19482;SDS011;9882;51.166;6.992;2023-02-21T15:32:59;62.00;;;24.10;;
19482;SDS011;9882;51.166;6.992;2023-02-21T15:35:33;66.88;;;26.98;;
19482;SDS011;9882;51.166;6.992;2023-02-21T15:38:04;71.72;;;27.70;;
19482;SDS011;9882;51.166;6.992;2023-02-21T15:40:37;63.47;;;24.70;;
19482;SDS011;9882;51.166;6.992;2023-02-21T15:43:06;71.43;;;27.08;;
19482;SDS011;9882;51.166;6.992;2023-02-21T15:45:40;72.93;;;27.95;;
19482;SDS011;9882;51.166;6.992;2023-02-21T15:48:13;71.55;;;25.15;;
19482;SDS011;9882;51.166;6.992;2023-02-21T15:50:42;54.17;;;23.00;;
19482;SDS011;9882;51.166;6.992;2023-02-21T15:53:13;76.88;;;30.55;;
19482;SDS011;9882;51.166;6.992;2023-02-21T15:55:44;61.30;;;23.05;;
19482;SDS011;9882;51.166;6.992;2023-02-21T15:58:15;75.15;;;29.73;;
19482;SDS011;9882;51.166;6.992;2023-02-21T16:01:02;71.68;;;25.42;;